.
WxDataArchive / Data Records for 2015-02-21
2015-02-20 February 2015 2015-02-22

Data Records for Saturday, 21 February 2015

Time	Temp	Chill	HIndex	Humid	Dewpt	 Wind 	HiWind	WindDir	Rain 	Barom
-----	----	-----	------	-----	-----	------	------	-------	-----	-----
00:00	17.3	17.3	17.3	51	2.3	0	1	90	0.00	30.087 
00:05	17.5	17.5	17.5	51	2.5	0	2	90	0.00	30.087 
00:10	17.7	17.7	17.7	50	2.3	1	4	90	0.00	30.087 
00:15	17.7	17.7	17.7	51	2.7	0	2	90	0.00	30.077 
00:20	17.8	17.8	17.8	53	3.6	0	2	90	0.00	30.077 
00:25	18.0	18.0	18.0	54	4.2	1	3	90	0.00	30.077 
00:30	18.0	18.0	18.0	57	5.4	1	3	90	0.00	30.074 
00:35	18.0	18.0	18.0	60	6.5	1	3	90	0.00	30.074 
00:40	17.8	17.8	17.8	62	7.0	1	4	90	0.00	30.074 
00:45	17.8	17.8	17.8	64	7.7	1	3	90	0.00	30.067 
00:50	17.7	17.7	17.7	66	8.3	0	3	90	0.00	30.067 
00:55	17.5	17.5	17.5	67	8.4	0	1	90	0.00	30.067 
01:00	17.5	17.5	17.5	68	8.8	0	2	90	0.00	30.059 
01:05	17.5	17.5	17.5	68	8.8	1	3	90	0.00	30.059 
01:10	17.5	17.5	17.5	68	8.8	0	2	90	0.00	30.059 
01:15	17.5	17.5	17.5	69	9.1	0	2	90	0.00	30.056 
01:20	17.5	17.5	17.5	71	9.7	0	2	90	0.00	30.056 
01:25	17.5	17.5	17.5	72	10.0	0	1	90	0.00	30.056 
01:30	17.3	17.3	17.3	74	10.5	0	3	90	0.00	30.048 
01:35	17.2	17.2	17.2	75	10.7	0	2	90	0.00	30.048 
01:40	17.2	17.2	17.2	76	11.0	0	1	90	0.00	30.048 
01:45	17.2	17.2	17.2	77	11.3	0	2	90	0.00	30.040 
01:50	17.0	17.0	17.0	78	11.3	0	2	90	0.00	30.040 
01:55	17.0	17.0	17.0	79	11.6	0	1	90	0.00	30.040 
02:00	17.0	17.0	17.0	79	11.6	0	1	90	0.00	30.040 
02:05	17.0	17.0	17.0	80	11.9	0	1	90	0.00	30.040 
02:10	17.0	17.0	17.0	80	11.9	0	0	---	0.00	30.040 
02:15	17.0	17.0	17.0	81	12.2	0	1	90	0.00	30.031 
02:20	17.2	17.2	17.2	81	12.4	0	1	90	0.00	30.031 
02:25	17.2	17.2	17.2	81	12.4	0	1	90	0.00	30.031 
02:30	17.2	17.2	17.2	82	12.7	0	1	90	0.00	30.035 
02:35	17.3	17.3	17.3	82	12.8	0	2	90	0.00	30.035 
02:40	17.3	17.3	17.3	82	12.8	0	3	90	0.00	30.035 
02:45	17.5	17.5	17.5	82	13.0	0	1	90	0.00	30.033 
02:50	17.5	17.5	17.5	81	12.7	0	1	90	0.00	30.033 
02:55	17.5	17.5	17.5	81	12.7	0	1	90	0.00	30.033 
03:00	17.5	17.5	17.5	81	12.7	0	2	90	0.00	30.020 
03:05	17.7	17.7	17.7	81	12.9	0	2	90	0.00	30.020 
03:10	17.7	17.7	17.7	81	12.9	0	1	90	0.00	30.020 
03:15	17.7	17.7	17.7	81	12.9	0	1	90	0.00	30.012 
03:20	17.8	17.8	17.8	81	13.0	0	1	90	0.00	30.012 
03:25	17.8	17.8	17.8	81	13.0	0	3	90	0.00	30.012 
03:30	17.8	17.8	17.8	81	13.0	0	1	90	0.00	30.009 
03:35	17.8	17.8	17.8	81	13.0	0	1	90	0.00	30.009 
03:40	17.8	17.8	17.8	81	13.0	0	1	90	0.00	30.009 
03:45	17.8	17.8	17.8	81	13.0	0	2	90	0.00	30.007 
03:50	18.0	18.0	18.0	81	13.2	0	1	90	0.00	30.007 
03:55	18.0	18.0	18.0	82	13.5	0	1	90	0.00	30.007 
04:00	18.0	18.0	18.0	82	13.5	0	2	90	0.00	30.006 
04:05	18.0	18.0	18.0	82	13.5	0	0	---	0.00	30.006 
04:10	18.0	18.0	18.0	83	13.7	0	1	90	0.00	30.006 
04:15	18.0	18.0	18.0	83	13.7	0	0	---	0.00	30.000 
04:20	18.0	18.0	18.0	84	14.0	0	0	---	0.00	30.000 
04:25	18.0	18.0	18.0	84	14.0	0	0	---	0.00	30.000 
04:30	18.0	18.0	18.0	84	14.0	0	1	90	0.00	29.992 
04:35	18.0	18.0	18.0	84	14.0	0	0	---	0.00	29.992 
04:40	18.0	18.0	18.0	85	14.3	0	1	90	0.00	29.992 
04:45	18.0	18.0	18.0	85	14.3	0	1	90	0.00	29.991 
04:50	18.0	18.0	18.0	85	14.3	0	0	---	0.00	29.991 
04:55	18.1	18.1	18.1	85	14.4	0	1	90	0.00	29.991 
05:00	18.1	18.1	18.1	85	14.4	0	1	90	0.00	29.988 
05:05	18.1	18.1	18.1	85	14.4	0	0	---	0.00	29.988 
05:10	18.1	18.1	18.1	85	14.4	0	1	90	0.00	29.988 
05:15	18.1	18.1	18.1	86	14.6	0	0	---	0.00	29.977 
05:20	18.3	18.3	18.3	86	14.8	0	0	---	0.00	29.977 
05:25	18.3	18.3	18.3	86	14.8	0	1	90	0.00	29.977 
05:30	18.3	18.3	18.3	86	14.8	0	1	90	0.00	29.972 
05:35	18.3	18.3	18.3	86	14.8	0	1	90	0.00	29.972 
05:40	18.3	18.3	18.3	86	14.8	0	0	---	0.00	29.972 
05:45	18.3	18.3	18.3	86	14.8	0	1	90	0.00	29.975 
05:50	18.4	18.4	18.4	86	14.9	0	0	---	0.00	29.975 
05:55	18.4	18.4	18.4	86	14.9	0	1	90	0.00	29.975 
06:00	18.4	18.4	18.4	86	14.9	0	0	---	0.00	29.975 
06:05	18.4	18.4	18.4	86	14.9	0	0	---	0.00	29.975 
06:10	18.6	18.6	18.6	86	15.1	0	0	---	0.00	29.975 
06:15	18.6	18.6	18.6	86	15.1	0	1	90	0.00	29.976 
06:20	18.6	18.6	18.6	86	15.1	0	1	90	0.00	29.976 
06:25	18.6	18.6	18.6	86	15.1	0	1	90	0.00	29.976 
06:30	18.6	18.6	18.6	86	15.1	0	1	90	0.00	29.972 
06:35	18.8	18.8	18.8	86	15.3	0	2	90	0.00	29.972 
06:40	18.8	18.8	18.8	86	15.3	0	2	90	0.00	29.972 
06:45	18.8	18.8	18.8	86	15.3	0	2	90	0.00	29.973 
06:50	18.8	18.8	18.8	86	15.3	0	1	90	0.00	29.973 
06:55	18.8	18.8	18.8	86	15.3	0	1	90	0.00	29.973 
07:00	18.8	18.8	18.8	86	15.3	0	0	---	0.00	29.971 
07:05	18.9	18.9	18.9	86	15.4	0	1	90	0.00	29.971 
07:10	18.9	18.9	18.9	86	15.4	0	1	90	0.00	29.971 
07:15	18.9	18.9	18.9	86	15.4	0	0	---	0.00	29.973 
07:20	18.9	18.9	18.9	86	15.4	0	0	---	0.00	29.973 
07:25	18.9	18.9	18.9	86	15.4	0	1	90	0.00	29.973 
07:30	18.9	18.9	18.9	86	15.4	0	1	90	0.00	29.965 
07:35	18.9	18.9	18.9	86	15.4	0	1	90	0.00	29.965 
07:40	18.9	18.9	18.9	86	15.4	1	2	90	0.00	29.965 
07:45	18.8	18.8	18.8	86	15.3	1	3	90	0.00	29.941 
07:50	18.8	18.8	18.8	86	15.3	0	2	90	0.00	29.941 
07:55	18.8	18.8	18.8	86	15.3	0	1	90	0.00	29.941 
08:00	18.6	18.6	18.6	86	15.1	0	2	90	0.00	29.961 
08:05	18.8	18.8	18.8	87	15.6	0	1	90	0.00	29.961 
08:10	18.8	18.8	18.8	87	15.6	0	1	90	0.00	29.961 
08:15	18.9	18.9	18.9	87	15.7	0	0	---	0.00	29.974 
08:20	19.1	19.1	19.1	87	15.9	0	0	---	0.00	29.974 
08:25	19.1	19.1	19.1	86	15.6	0	0	---	0.00	29.974 
08:30	19.1	19.1	19.1	86	15.6	0	1	90	0.00	29.983 
08:35	19.2	19.2	19.2	86	15.7	0	0	---	0.00	29.983 
08:40	19.2	19.2	19.2	86	15.7	0	0	---	0.00	29.983 
08:45	19.4	19.4	19.4	86	15.9	0	0	---	0.00	29.999 
08:50	19.5	19.5	19.5	86	16.0	0	1	90	0.00	29.999 
08:55	19.5	19.5	19.5	86	16.0	0	1	90	0.00	29.999 
09:00	19.7	19.7	19.7	86	16.2	0	1	90	0.00	29.989 
09:05	19.7	19.7	19.7	86	16.2	0	1	90	0.00	29.989 
09:10	19.7	19.7	19.7	86	16.2	0	0	---	0.00	29.989 
09:15	19.9	19.9	19.9	86	16.4	0	0	---	0.00	29.984 
09:20	20.0	20.0	20.0	86	16.5	0	0	---	0.00	29.984 
09:25	20.2	20.2	20.2	86	16.7	0	0	---	0.00	29.984 
09:30	20.3	20.3	20.3	86	16.8	0	0	---	0.00	29.973 
09:35	20.5	20.5	20.5	85	16.7	0	0	---	0.00	29.973 
09:40	20.5	20.5	20.5	85	16.7	0	0	---	0.00	29.973 
09:45	20.6	20.6	20.6	85	16.8	0	1	90	0.00	29.967 
09:50	20.8	20.8	20.8	85	17.0	0	0	---	0.00	29.967 
09:55	21.0	21.0	21.0	85	17.2	0	1	90	0.00	29.967 
10:00	21.0	21.0	21.0	84	16.9	0	1	90	0.00	29.968 
10:05	20.8	20.8	20.8	84	16.7	0	1	90	0.00	29.968 
10:10	21.0	21.0	21.0	84	16.9	0	1	90	0.00	29.968 
10:15	21.0	21.0	21.0	84	16.9	0	2	90	0.00	29.968 
10:20	21.0	21.0	21.0	84	16.9	0	1	90	0.00	29.968 
10:25	20.8	20.8	20.8	84	16.7	0	2	90	0.00	29.968 
10:30	20.6	20.6	20.6	84	16.5	0	2	90	0.00	29.971 
10:35	20.6	20.6	20.6	85	16.8	0	1	90	0.00	29.971 
10:40	20.6	20.6	20.6	85	16.8	0	2	90	0.00	29.971 
10:45	21.0	21.0	21.0	85	17.2	0	1	90	0.00	29.979 
10:50	21.0	21.0	21.0	85	17.2	1	2	90	0.00	29.979 
10:55	20.8	20.8	20.8	84	16.7	1	2	90	0.00	29.979 
11:00	20.8	20.8	20.8	84	16.7	0	2	90	0.00	29.967 
11:05	21.0	21.0	21.0	85	17.2	0	1	90	0.00	29.967 
11:10	21.1	21.1	21.1	85	17.3	0	1	90	0.00	29.967 
11:15	21.3	21.3	21.3	84	17.2	0	1	90	0.00	29.975 
11:20	21.4	21.4	21.4	84	17.3	0	1	90	0.00	29.975 
11:25	21.6	21.6	21.6	84	17.5	0	1	90	0.00	29.975 
11:30	21.8	21.8	21.8	84	17.7	0	0	---	0.00	29.968 
11:35	22.1	22.1	22.1	84	18.0	0	0	---	0.00	29.968 
11:40	22.2	22.2	22.2	84	18.1	0	0	---	0.00	29.968 
11:45	22.5	22.5	22.5	84	18.4	0	1	90	0.00	29.967 
11:50	22.9	22.9	22.9	83	18.5	0	0	---	0.00	29.967 
11:55	23.0	23.0	23.0	82	18.3	0	0	---	0.00	29.967 
12:00	23.2	23.2	23.2	82	18.5	0	0	---	0.00	29.971 
12:05	23.5	23.5	23.5	81	18.5	0	1	90	0.00	29.971 
12:10	23.6	23.6	23.6	81	18.6	0	0	---	0.00	29.971 
12:15	23.8	23.8	23.8	81	18.8	0	1	90	0.00	29.968 
12:20	23.9	23.9	23.9	80	18.6	0	2	90	0.00	29.968 
12:25	23.9	23.9	23.9	81	18.9	0	2	90	0.00	29.968 
12:30	24.1	24.1	24.1	81	19.1	0	1	90	0.00	29.966 
12:35	24.2	24.2	24.2	80	18.9	0	2	90	0.00	29.966 
12:40	24.5	24.5	24.5	80	19.2	0	1	90	0.00	29.966 
12:45	24.5	24.5	24.5	80	19.2	0	2	90	0.00	29.962 
12:50	24.4	24.4	24.4	79	18.8	0	2	90	0.00	29.962 
12:55	24.4	24.4	24.4	79	18.8	0	2	90	0.00	29.962 
13:00	24.5	24.5	24.5	79	18.9	0	1	90	0.00	29.954 
13:05	24.7	24.7	24.7	78	18.8	0	2	90	0.00	29.954 
13:10	24.8	24.8	24.8	78	18.9	0	2	90	0.00	29.954 
13:15	24.8	24.8	24.8	78	18.9	0	2	90	0.00	29.947 
13:20	24.5	24.5	24.5	79	18.9	1	3	90	0.00	29.947 
13:25	24.5	24.5	24.5	80	19.2	1	2	90	0.00	29.947 
13:30	24.1	24.1	24.1	80	18.8	1	3	90	0.00	29.936 
13:35	24.1	24.1	24.1	80	18.8	0	2	90	0.00	29.936 
13:40	23.9	23.9	23.9	81	18.9	1	3	90	0.00	29.936 
13:45	23.9	23.9	23.9	80	18.6	1	3	90	0.00	29.941 
13:50	24.1	24.1	24.1	80	18.8	0	2	90	0.00	29.941 
13:55	24.5	24.5	24.5	80	19.2	0	1	90	0.00	29.941 
14:00	24.8	24.8	24.8	80	19.5	0	1	90	0.00	29.943 
14:05	25.3	25.3	25.3	79	19.7	0	1	90	0.00	29.943 
14:10	25.8	25.8	25.8	79	20.2	0	1	90	0.00	29.943 
14:15	26.1	26.1	26.1	78	20.2	0	2	90	0.00	29.947 
14:20	26.3	26.3	26.3	77	20.1	0	3	90	0.00	29.947 
14:25	26.4	26.4	26.4	77	20.2	0	2	90	0.00	29.947 
14:30	26.6	26.6	26.6	76	20.1	0	3	90	0.00	29.937 
14:35	26.3	26.3	26.3	77	20.1	1	3	90	0.00	29.937 
14:40	26.3	26.3	26.3	77	20.1	0	2	90	0.00	29.937 
14:45	26.1	26.1	26.1	76	19.6	0	1	90	0.00	29.939 
14:50	26.0	26.0	26.0	76	19.5	0	1	90	0.01	29.939 
14:55	26.0	26.0	26.0	76	19.5	0	2	90	0.00	29.939 
15:00	25.8	25.8	25.8	76	19.3	1	3	90	0.01	29.942 
15:05	25.8	25.8	25.8	76	19.3	1	2	90	0.00	29.942 
15:10	25.8	25.8	25.8	77	19.6	0	2	90	0.00	29.942 
15:15	26.3	26.3	26.3	77	20.1	0	2	90	0.01	29.948 
15:20	26.4	26.4	26.4	76	19.9	0	3	90	0.00	29.948 
15:25	26.4	26.4	26.4	76	19.9	1	3	90	0.00	29.948 
15:30	26.4	26.4	26.4	76	19.9	0	2	90	0.01	29.950 
15:35	26.4	26.4	26.4	76	19.9	0	2	90	0.00	29.950 
15:40	26.3	26.3	26.3	75	19.5	0	2	90	0.00	29.950 
15:45	26.3	26.3	26.3	75	19.5	0	2	90	0.00	29.958 
15:50	26.0	26.0	26.0	76	19.5	1	3	90	0.01	29.958 
15:55	25.8	25.8	25.8	77	19.6	1	3	90	0.00	29.958 
16:00	25.8	25.8	25.8	77	19.6	0	2	90	0.00	29.962 
16:05	26.0	26.0	26.0	77	19.8	0	2	90	0.00	29.962 
16:10	26.1	26.1	26.1	77	19.9	0	1	90	0.00	29.962 
16:15	26.0	26.0	26.0	76	19.5	0	2	90	0.00	29.962 
16:20	25.8	25.8	25.8	77	19.6	1	2	90	0.00	29.962 
16:25	25.7	25.7	25.7	77	19.5	1	3	90	0.01	29.962 
16:30	25.7	25.7	25.7	77	19.5	0	2	90	0.00	29.963 
16:35	25.7	25.7	25.7	77	19.5	0	2	90	0.00	29.963 
16:40	25.4	25.4	25.4	77	19.2	1	2	90	0.00	29.963 
16:45	25.1	25.1	25.1	77	18.9	0	1	90	0.00	29.968 
16:50	25.1	25.1	25.1	77	18.9	1	2	90	0.00	29.968 
16:55	25.1	25.1	25.1	77	18.9	0	2	90	0.00	29.968 
17:00	25.1	25.1	25.1	77	18.9	1	2	90	0.00	29.980 
17:05	25.0	25.0	25.0	77	18.8	0	2	90	0.00	29.980 
17:10	25.1	25.1	25.1	77	18.9	0	2	90	0.00	29.980 
17:15	25.1	25.1	25.1	77	18.9	1	2	90	0.00	29.986 
17:20	25.0	25.0	25.0	77	18.8	0	2	90	0.00	29.986 
17:25	25.0	25.0	25.0	77	18.8	0	2	90	0.00	29.986 
17:30	24.8	24.8	24.8	77	18.6	1	2	90	0.00	29.997 
17:35	24.7	24.7	24.7	78	18.8	0	1	90	0.00	29.997 
17:40	24.7	24.7	24.7	78	18.8	0	1	90	0.00	29.997 
17:45	24.7	24.7	24.7	78	18.8	0	1	90	0.00	30.011 
17:50	24.7	24.7	24.7	78	18.8	0	0	---	0.00	30.011 
17:55	24.7	24.7	24.7	78	18.8	0	0	---	0.00	30.011 
18:00	24.7	24.7	24.7	78	18.8	0	1	90	0.00	30.015 
18:05	24.5	24.5	24.5	78	18.6	0	0	---	0.00	30.015 
18:10	24.4	24.4	24.4	79	18.8	0	0	---	0.00	30.015 
18:15	24.4	24.4	24.4	79	18.8	0	0	---	0.00	30.025 
18:20	24.2	24.2	24.2	78	18.3	0	0	---	0.00	30.025 
18:25	23.9	23.9	23.9	79	18.4	0	0	---	0.00	30.025 
18:30	23.8	23.8	23.8	79	18.3	0	0	---	0.00	30.029 
18:35	23.5	23.5	23.5	79	18.0	0	0	---	0.00	30.029 
18:40	23.2	23.2	23.2	79	17.7	0	0	---	0.00	30.029 
18:45	22.9	22.9	22.9	79	17.4	0	0	---	0.00	30.042 
18:50	22.5	22.5	22.5	79	17.0	0	0	---	0.00	30.042 
18:55	22.2	22.2	22.2	80	17.0	0	0	---	0.00	30.042 
19:00	21.9	21.9	21.9	81	17.0	0	0	---	0.00	30.046 
19:05	21.6	21.6	21.6	81	16.7	0	0	---	0.00	30.046 
19:10	21.1	21.1	21.1	81	16.2	0	0	---	0.00	30.046 
19:15	20.8	20.8	20.8	81	15.9	0	0	---	0.00	30.048 
19:20	20.5	20.5	20.5	81	15.6	0	0	---	0.00	30.048 
19:25	20.0	20.0	20.0	81	15.1	0	0	---	0.00	30.048 
19:30	19.7	19.7	19.7	81	14.8	0	0	---	0.00	30.060 
19:35	19.4	19.4	19.4	81	14.5	0	0	---	0.00	30.060 
19:40	19.1	19.1	19.1	82	14.5	0	0	---	0.00	30.060 
19:45	18.6	18.6	18.6	82	14.0	0	0	---	0.00	30.067 
19:50	18.3	18.3	18.3	83	14.0	0	0	---	0.00	30.067 
19:55	18.1	18.1	18.1	83	13.8	0	0	---	0.00	30.067 
20:00	17.8	17.8	17.8	83	13.5	0	0	---	0.00	30.080 
20:05	17.3	17.3	17.3	83	13.0	0	0	---	0.00	30.080 
20:10	17.0	17.0	17.0	83	12.7	0	0	---	0.00	30.080 
20:15	16.7	16.7	16.7	83	12.5	0	0	---	0.00	30.083 
20:20	16.4	16.4	16.4	84	12.4	0	0	---	0.00	30.083 
20:25	16.2	16.2	16.2	84	12.2	0	0	---	0.00	30.083 
20:30	16.2	16.2	16.2	84	12.2	0	0	---	0.00	30.092 
20:35	16.2	16.2	16.2	84	12.2	0	0	---	0.00	30.092 
20:40	16.4	16.4	16.4	85	12.7	0	0	---	0.00	30.092 
20:45	16.4	16.4	16.4	85	12.7	0	0	---	0.00	30.099 
20:50	16.5	16.5	16.5	85	12.8	0	0	---	0.00	30.099 
20:55	16.5	16.5	16.5	85	12.8	0	0	---	0.00	30.099 
21:00	16.7	16.7	16.7	86	13.3	0	0	---	0.00	30.108 
21:05	16.7	16.7	16.7	86	13.3	0	0	---	0.00	30.108 
21:10	16.9	16.9	16.9	86	13.5	0	0	---	0.00	30.108 
21:15	16.9	16.9	16.9	86	13.5	0	0	---	0.00	30.112 
21:20	17.0	17.0	17.0	86	13.6	0	0	---	0.00	30.112 
21:25	17.0	17.0	17.0	86	13.6	0	0	---	0.00	30.112 
21:30	16.9	16.9	16.9	86	13.5	0	0	---	0.00	30.112 
21:35	16.9	16.9	16.9	87	13.7	0	0	---	0.00	30.112 
21:40	16.9	16.9	16.9	87	13.7	0	0	---	0.00	30.112 
21:45	17.0	17.0	17.0	87	13.8	0	0	---	0.00	30.113 
21:50	17.2	17.2	17.2	87	14.0	0	0	---	0.00	30.113 
21:55	17.3	17.3	17.3	87	14.1	0	0	---	0.00	30.113 
22:00	17.5	17.5	17.5	88	14.6	0	0	---	0.00	30.124 
22:05	17.7	17.7	17.7	88	14.8	0	0	---	0.00	30.124 
22:10	17.7	17.7	17.7	88	14.8	0	0	---	0.00	30.124 
22:15	17.8	17.8	17.8	88	14.9	0	0	---	0.00	30.133 
22:20	18.0	18.0	18.0	88	15.1	0	0	---	0.00	30.133 
22:25	18.1	18.1	18.1	88	15.2	0	0	---	0.00	30.133 
22:30	18.4	18.4	18.4	88	15.5	0	0	---	0.00	30.139 
22:35	18.6	18.6	18.6	88	15.6	0	0	---	0.00	30.139 
22:40	18.8	18.8	18.8	88	15.8	0	0	---	0.00	30.139 
22:45	19.1	19.1	19.1	88	16.1	0	0	---	0.00	30.136 
22:50	19.4	19.4	19.4	88	16.4	0	0	---	0.00	30.136 
22:55	19.5	19.5	19.5	89	16.8	0	0	---	0.00	30.136 
23:00	19.9	19.9	19.9	89	17.2	0	0	---	0.00	30.134 
23:05	20.0	20.0	20.0	89	17.3	0	0	---	0.00	30.134 
23:10	20.3	20.3	20.3	89	17.6	0	0	---	0.00	30.134 
23:15	20.5	20.5	20.5	89	17.8	0	0	---	0.00	30.134 
23:20	20.5	20.5	20.5	89	17.8	0	0	---	0.00	30.134 
23:25	20.6	20.6	20.6	89	17.9	0	0	---	0.00	30.134 
23:30	20.8	20.8	20.8	89	18.1	0	0	---	0.00	30.137 
23:35	20.8	20.8	20.8	89	18.1	0	0	---	0.00	30.137 
23:40	21.0	21.0	21.0	89	18.3	0	0	---	0.00	30.137 
23:45	21.1	21.1	21.1	89	18.4	0	0	---	0.00	30.141 
23:50	21.1	21.1	21.1	89	18.4	0	0	---	0.00	30.141 
23:55	21.3	21.3	21.3	89	18.6	0	0	---	0.00	30.141 

CoCoRaHS
IN-AL-39
A2 Web Hosting
Creative Commons License
GoDaddy
search engine by freefind advanced

loaded 2018-11-20 03:46:44 • last modified 2010-11-18 10:43:29
Privacy PolicyDisclaimer
• wx.awcolley.com is powered by PmWiki v.2002016 •
• all content (unless otherwise noted) © 2018 A W Colley